Biotrans — JWPN — position and weather

sailwx.info

Track history (hours):
 
Tides and Currents Weather Stations Pressure Air Temp Water Temp Dewpoint Dewpoint Depression Visibility Wind Speed Wind Dir Waves Ship Positions

Biotrans

Last reported at 2015-Aug-01 04:33 UTC. Time now 2015-Aug-01 05:42 UTC.
Position N 63°53' E 009°52'.

Length 55 m; draft 5.5 m.

Type: Cargo ship. MMSI: 259260000.

Date/timePositionNaut miles runAvg speedWind from/ knotsBaromVisibWave heightAir tempDewpointWater temp
2015-Aug-01 04:33N 63°53' E 009°52'0 0.0
2015-Aug-01 03:33N 63°53' E 009°52'0 0.0
2015-Aug-01 02:33N 63°53' E 009°52'0 0.0
2015-Aug-01 01:33N 63°53' E 009°52'0 0.0
2015-Aug-01 00:33N 63°53' E 009°52'0 0.0
2015-Jul-31 23:33N 63°53' E 009°52'0 0.0
2015-Jul-31 22:33N 63°53' E 009°52'0 0.0
2015-Jul-31 21:33N 63°53' E 009°52'6 5.8
2015-Jul-31 20:33N 63°59' E 009°56'54 7.5
2015-Jul-31 13:28N 64°45' E 010°60'8 8.2
2015-Jul-31 12:31N 64°51' E 011°12'8 8.4
2015-Jul-31 11:32N 64°56' E 011°26'9 8.2
2015-Jul-31 10:29N 65°02' E 011°42'3 2.6
2015-Jul-31 09:23N 65°04' E 011°46'9 8.7
2015-Jul-31 08:22N 65°12' E 011°53'74 8.1
2015-Jul-30 23:17N 66°21' E 012°57'9 8.6
2015-Jul-30 22:13N 66°30' E 012°59'22 8.3
2015-Jul-30 19:32N 66°51' E 013°19'8 7.8
2015-Jul-30 18:33N 66°57' E 013°29'7 7.5
2015-Jul-30 17:33N 67°02' E 013°45'8 7.8
2015-Jul-30 16:33N 67°07' E 013°60'8 7.8
2015-Jul-30 15:33N 67°14' E 014°09'8 8.0
2015-Jul-30 14:33N 67°20' E 014°21'8 7.8
2015-Jul-30 13:34N 67°28' E 014°28'160 6.6
2015-Jul-29 13:26N 69°35' E 018°51'5 5.7
2015-Jul-29 12:33N 69°40' E 018°58'  
2015-Jul-25 20:10N 69°44' E 019°03'5 9.0
2015-Jul-25 19:34N 69°39' E 018°59'155 6.2
2015-Jul-24 18:27N 67°39' E 014°31'8 9.1
2015-Jul-24 17:34N 67°30' E 014°29'9 9.2
2015-Jul-24 16:34N 67°21' E 014°24'5 5.1
2015-Jul-24 15:34N 67°17' E 014°20'4 4.2
2015-Jul-24 14:33N 67°14' E 014°12'6 6.4
2015-Jul-24 13:34N 67°09' E 014°02'8 7.5
2015-Jul-24 12:33N 67°03' E 013°50'7 7.5
2015-Jul-24 11:34N 66°59' E 013°34'7 6.9
2015-Jul-24 10:32N 66°53' E 013°24'24 7.3
2015-Jul-24 07:20N 66°32' E 012°58'7 8.6
2015-Jul-24 06:31N 66°25' E 012°59'69 8.4
2015-Jul-23 22:20N 65°20' E 012°02'7 8.6
2015-Jul-23 21:31N 65°14' E 011°55'8 8.7
2015-Jul-23 20:33N 65°06' E 011°48'8 8.3
2015-Jul-23 19:33N 64°59' E 011°36'9 8.9
2015-Jul-23 18:33N 64°54' E 011°20'8 8.5
2015-Jul-23 17:33N 64°48' E 011°05'52 8.3
2015-Jul-23 11:16N 64°03' E 010°03'6 8.5
2015-Jul-23 10:34N 63°58' E 009°55'5 5.2
2015-Jul-23 09:33N 63°53' E 009°52'0 0.0
2015-Jul-23 08:33N 63°53' E 009°52'0 0.0
2015-Jul-23 07:34N 63°53' E 009°52'3 2.6
2015-Jul-23 06:33N 63°56' E 009°54'1 1.0
2015-Jul-23 05:34N 63°57' E 009°53'0 0.4
2015-Jul-23 04:34N 63°57' E 009°53'3 3.0
2015-Jul-23 03:34N 63°54' E 009°51'4 3.8
2015-Jul-23 02:34N 63°52' E 009°43'5 5.0
2015-Jul-23 01:34N 63°49' E 009°35'5 5.1
2015-Jul-23 00:33N 63°44' E 009°32'5 4.5
2015-Jul-22 23:34N 63°40' E 009°29'4 3.7
2015-Jul-22 22:31N 63°37' E 009°23'  
Track history (hours):
 
Tides and Currents Weather Stations Pressure Air Temp Water Temp Dewpoint Dewpoint Depression Visibility Wind Speed Wind Dir Waves Ship Positions

Biotrans

Last reported at 2015-Aug-01 04:33 UTC. Time now 2015-Aug-01 05:42 UTC.
Position N 63°53' E 009°52'.

Length 55 m; draft 5.5 m.

Type: Cargo ship. MMSI: 259260000.

Date/timePositionNaut miles runAvg speedWind from/ knotsBaromVisibWave heightAir tempDewpointWater temp
2015-Aug-01 04:33N 63°53' E 009°52'0 0.0
2015-Aug-01 03:33N 63°53' E 009°52'0 0.0
2015-Aug-01 02:33N 63°53' E 009°52'0 0.0
2015-Aug-01 01:33N 63°53' E 009°52'0 0.0
2015-Aug-01 00:33N 63°53' E 009°52'0 0.0
2015-Jul-31 23:33N 63°53' E 009°52'0 0.0
2015-Jul-31 22:33N 63°53' E 009°52'0 0.0
2015-Jul-31 21:33N 63°53' E 009°52'6 5.8
2015-Jul-31 20:33N 63°59' E 009°56'54 7.5
2015-Jul-31 13:28N 64°45' E 010°60'8 8.2
2015-Jul-31 12:31N 64°51' E 011°12'8 8.4
2015-Jul-31 11:32N 64°56' E 011°26'9 8.2
2015-Jul-31 10:29N 65°02' E 011°42'3 2.6
2015-Jul-31 09:23N 65°04' E 011°46'9 8.7
2015-Jul-31 08:22N 65°12' E 011°53'74 8.1
2015-Jul-30 23:17N 66°21' E 012°57'9 8.6
2015-Jul-30 22:13N 66°30' E 012°59'22 8.3
2015-Jul-30 19:32N 66°51' E 013°19'8 7.8
2015-Jul-30 18:33N 66°57' E 013°29'7 7.5
2015-Jul-30 17:33N 67°02' E 013°45'8 7.8
2015-Jul-30 16:33N 67°07' E 013°60'8 7.8
2015-Jul-30 15:33N 67°14' E 014°09'8 8.0
2015-Jul-30 14:33N 67°20' E 014°21'8 7.8
2015-Jul-30 13:34N 67°28' E 014°28'160 6.6
2015-Jul-29 13:26N 69°35' E 018°51'5 5.7
2015-Jul-29 12:33N 69°40' E 018°58'  
2015-Jul-25 20:10N 69°44' E 019°03'5 9.0
2015-Jul-25 19:34N 69°39' E 018°59'155 6.2
2015-Jul-24 18:27N 67°39' E 014°31'8 9.1
2015-Jul-24 17:34N 67°30' E 014°29'9 9.2
2015-Jul-24 16:34N 67°21' E 014°24'5 5.1
2015-Jul-24 15:34N 67°17' E 014°20'4 4.2
2015-Jul-24 14:33N 67°14' E 014°12'6 6.4
2015-Jul-24 13:34N 67°09' E 014°02'8 7.5
2015-Jul-24 12:33N 67°03' E 013°50'7 7.5
2015-Jul-24 11:34N 66°59' E 013°34'7 6.9
2015-Jul-24 10:32N 66°53' E 013°24'24 7.3
2015-Jul-24 07:20N 66°32' E 012°58'7 8.6
2015-Jul-24 06:31N 66°25' E 012°59'69 8.4
2015-Jul-23 22:20N 65°20' E 012°02'7 8.6
2015-Jul-23 21:31N 65°14' E 011°55'8 8.7
2015-Jul-23 20:33N 65°06' E 011°48'8 8.3
2015-Jul-23 19:33N 64°59' E 011°36'9 8.9
2015-Jul-23 18:33N 64°54' E 011°20'8 8.5
2015-Jul-23 17:33N 64°48' E 011°05'52 8.3
2015-Jul-23 11:16N 64°03' E 010°03'6 8.5
2015-Jul-23 10:34N 63°58' E 009°55'5 5.2
2015-Jul-23 09:33N 63°53' E 009°52'0 0.0
2015-Jul-23 08:33N 63°53' E 009°52'0 0.0
2015-Jul-23 07:34N 63°53' E 009°52'3 2.6
2015-Jul-23 06:33N 63°56' E 009°54'1 1.0
2015-Jul-23 05:34N 63°57' E 009°53'0 0.4
2015-Jul-23 04:34N 63°57' E 009°53'3 3.0
2015-Jul-23 03:34N 63°54' E 009°51'4 3.8
2015-Jul-23 02:34N 63°52' E 009°43'5 5.0
2015-Jul-23 01:34N 63°49' E 009°35'5 5.1
2015-Jul-23 00:33N 63°44' E 009°32'5 4.5
2015-Jul-22 23:34N 63°40' E 009°29'4 3.7
2015-Jul-22 22:31N 63°37' E 009°23'  

Dump ship's entire track history